Time;durP1;ratioP1;P1;durP2;ratioP2;P2;SDS_P1;SDS_P2;PMS_P1;PMS_P2;Temp;Humidity;BMP_temperature;BMP_pressure;BME280_temperature;BME280_humidity;BME280_pressure;Samples;Min_cycle;Max_cycle;Signal;HPM_P1;HPM_P2
2022/06/24 00:01:14;;;;;;;4.32;2.70;;;;;;;18.09;50.67;99530.47;5004970;28;20038;-62
2022/06/24 00:03:42;;;;;;;3.58;2.58;;;;;;;18.09;51.36;99529.63;5004825;28;20084;-63
2022/06/24 00:06:18;;;;;;;4.07;3.20;;;;;;;18.06;52.25;99535.88;5004629;28;20042;-63
2022/06/24 00:08:57;;;;;;;4.57;3.33;;;;;;;17.97;52.34;99533.78;5003003;28;20412;-63
2022/06/24 00:11:24;;;;;;;6.57;3.55;;;;;;;17.94;52.65;99547.88;5004108;28;20038;-63
2022/06/24 00:13:50;;;;;;;6.20;3.17;;;;;;;17.93;52.87;99550.59;5004747;28;20104;-63
2022/06/24 00:16:16;;;;;;;8.07;3.40;;;;;;;17.95;53.24;99548.72;5004683;28;20037;-63
2022/06/24 00:18:41;;;;;;;7.00;3.15;;;;;;;17.93;53.43;99548.81;5004833;28;20344;-63
2022/06/24 00:21:13;;;;;;;4.20;2.80;;;;;;;17.88;53.68;99547.34;5003694;28;20480;-63
2022/06/24 00:23:42;;;;;;;9.73;3.03;;;;;;;17.82;53.92;99543.28;5004074;28;20038;-62
2022/06/24 00:26:08;;;;;;;5.25;3.00;;;;;;;17.85;53.78;99553.59;5003904;28;20026;-62
2022/06/24 00:28:34;;;;;;;5.43;3.13;;;;;;;17.77;53.98;99551.38;5004282;28;20023;-64
2022/06/24 00:31:02;;;;;;;5.43;2.85;;;;;;;17.45;55.00;99512.97;5003323;28;20030;-63
2022/06/24 00:33:33;;;;;;;7.00;3.08;;;;;;;17.76;54.94;99568.03;5004008;28;20030;-63
2022/06/24 00:35:59;;;;;;;6.80;3.27;;;;;;;17.68;55.18;99559.72;5002532;28;20124;-63
2022/06/24 00:38:26;;;;;;;6.68;3.22;;;;;;;17.42;54.88;99520.03;5003840;28;20031;-61
2022/06/24 00:41:05;;;;;;;11.35;3.67;;;;;;;17.68;55.24;99567.56;5004304;28;20034;-62
2022/06/24 00:43:40;;;;;;;7.38;3.38;;;;;;;17.32;55.60;99523.25;5002016;28;20036;-62
2022/06/24 00:46:18;;;;;;;9.80;3.50;;;;;;;17.58;55.80;99564.59;5004130;28;20031;-62
2022/06/24 00:48:48;;;;;;;7.72;3.40;;;;;;;17.54;55.26;99572.69;5003676;28;20030;-62
2022/06/24 00:51:15;;;;;;;8.43;3.58;;;;;;;17.57;55.32;99577.75;5003795;28;20062;-61
2022/06/24 00:53:42;;;;;;;10.32;4.00;;;;;;;17.58;55.90;99576.84;5003470;28;20065;-61
2022/06/24 00:56:10;;;;;;;7.22;3.53;;;;;;;17.15;56.12;99511.84;5003887;28;20038;-63
2022/06/24 00:58:37;;;;;;;7.85;3.67;;;;;;;17.57;56.22;99585.63;5003563;28;20439;-63
2022/06/24 01:01:03;;;;;;;9.75;3.50;;;;;;;17.50;57.26;99579.88;5003109;28;20381;-62
2022/06/24 01:03:37;;;;;;;8.45;3.72;;;;;;;17.18;57.21;99526.56;5004260;28;20060;-62
2022/06/24 01:06:02;;;;;;;9.20;4.15;;;;;;;17.49;57.08;99588.66;5003052;28;20403;-62
2022/06/24 01:08:28;;;;;;;12.80;4.00;;;;;;;17.42;57.13;99592.50;5003750;28;20038;-62
2022/06/24 01:10:53;;;;;;;9.88;4.07;;;;;;;17.43;57.65;99581.97;5003620;28;20025;-62
2022/06/24 01:13:19;;;;;;;9.25;4.00;;;;;;;17.43;57.80;99586.38;5002050;28;20495;-62
2022/06/24 01:15:45;;;;;;;7.82;4.32;;;;;;;17.40;58.44;99584.75;5003458;28;20030;-62
2022/06/24 01:18:10;;;;;;;10.55;4.63;;;;;;;17.38;58.51;99581.34;5003332;28;20026;-62
2022/06/24 01:20:36;;;;;;;8.90;4.30;;;;;;;17.26;58.44;99558.44;5003502;28;20053;-61
2022/06/24 01:23:01;;;;;;;11.15;4.40;;;;;;;17.34;59.12;99574.56;5003740;28;20030;-61
2022/06/24 01:25:30;;;;;;;10.18;4.05;;;;;;;17.31;58.82;99577.34;5003357;28;20093;-61
2022/06/24 01:27:55;;;;;;;10.18;4.68;;;;;;;17.33;59.31;99575.50;5002448;28;20172;-62
2022/06/24 01:30:21;;;;;;;11.13;4.50;;;;;;;17.32;59.42;99575.59;5003434;28;20512;-62
2022/06/24 01:32:46;;;;;;;7.25;4.00;;;;;;;17.31;59.23;99579.97;5003311;28;20033;-62
2022/06/24 01:35:13;;;;;;;11.88;4.55;;;;;;;17.30;59.41;99583.53;5003528;28;20077;-62
2022/06/24 01:37:39;;;;;;;9.07;4.93;;;;;;;17.23;60.10;99590.84;5002307;28;20036;-62
2022/06/24 01:40:05;;;;;;;11.35;4.60;;;;;;;17.22;60.08;99590.91;5004145;28;20117;-62
2022/06/24 01:42:31;;;;;;;10.35;4.45;;;;;;;17.24;60.46;99589.91;5002607;28;20035;-62
2022/06/24 01:44:56;;;;;;;10.25;4.40;;;;;;;17.18;60.47;99578.91;5002626;28;20357;-62
2022/06/24 01:47:22;;;;;;;12.35;4.40;;;;;;;17.20;61.00;99587.50;5002974;28;20158;-62
2022/06/24 01:49:47;;;;;;;7.88;4.10;;;;;;;17.24;60.91;99589.91;5002977;28;20030;-62
2022/06/24 01:52:14;;;;;;;15.00;4.45;;;;;;;17.24;61.24;99591.66;5002988;28;20157;-61
2022/06/24 01:54:40;;;;;;;11.93;4.43;;;;;;;17.24;61.96;99599.53;5002463;28;20069;-61
2022/06/24 01:57:06;;;;;;;10.55;4.40;;;;;;;17.24;61.74;99597.78;5001155;28;20056;-61
2022/06/24 01:59:31;;;;;;;9.80;4.80;;;;;;;17.27;61.49;99593.28;5002552;28;20034;-61
2022/06/24 02:01:57;;;;;;;11.82;4.78;;;;;;;17.25;61.11;99591.59;5002442;28;20048;-61
2022/06/24 02:04:22;;;;;;;15.75;5.65;;;;;;;17.29;61.77;99594.91;5002533;28;20474;-61
2022/06/24 02:06:48;;;;;;;14.70;5.72;;;;;;;17.34;61.86;99599.91;5002732;28;20042;-61
2022/06/24 02:09:16;;;;;;;19.70;5.30;;;;;;;17.33;61.87;99600.81;5002564;28;20022;-61
2022/06/24 02:14:27;;;;;;;22.95;6.18;;;;;;;17.40;61.65;99597.84;5002541;28;20030;-61
2022/06/24 02:16:53;;;;;;;15.57;5.57;;;;;;;17.43;61.73;99600.28;5001788;28;20506;-61
2022/06/24 02:19:20;;;;;;;11.57;4.97;;;;;;;17.46;62.19;99599.28;5002529;28;20038;-64
2022/06/24 02:21:45;;;;;;;13.48;5.47;;;;;;;17.51;61.84;99601.66;5002137;28;20038;-64
2022/06/24 02:24:15;;;;;;;12.02;5.60;;;;;;;17.51;61.82;99604.28;5002208;28;20554;-64
2022/06/24 02:26:42;;;;;;;10.35;6.20;;;;;;;17.51;62.28;99605.13;5002184;28;20034;-64
2022/06/24 02:29:08;;;;;;;12.65;6.40;;;;;;;17.55;62.49;99604.03;5002409;28;20455;-64
2022/06/24 02:31:33;;;;;;;13.50;5.55;;;;;;;17.69;62.34;99605.94;5002005;28;20065;-64
2022/06/24 02:33:59;;;;;;;14.13;5.82;;;;;;;17.71;61.99;99611.09;5001672;28;20034;-62
2022/06/24 02:36:25;;;;;;;11.00;6.05;;;;;;;17.73;61.61;99609.25;5001063;28;20041;-63
2022/06/24 02:38:50;;;;;;;14.15;6.22;;;;;;;17.80;61.60;99601.91;5002537;28;20046;-62
2022/06/24 02:41:16;;;;;;;13.85;7.40;;;;;;;17.76;61.51;99602.06;5002289;28;20052;-63
2022/06/24 02:43:42;;;;;;;13.88;6.53;;;;;;;17.82;61.44;99611.38;5002691;28;20033;-62
2022/06/24 02:46:17;;;;;;;11.50;7.30;;;;;;;17.60;60.65;99561.91;5001764;28;20041;-62
2022/06/24 02:48:43;;;;;;;10.73;6.60;;;;;;;17.95;61.22;99611.63;5001813;28;20034;-63
2022/06/24 02:51:12;;;;;;;9.15;4.70;;;;;;;17.90;60.18;99592.63;5001663;28;20038;-63
2022/06/24 02:53:38;;;;;;;7.82;4.07;;;;;;;18.08;60.12;99614.44;5001603;28;20037;-63
2022/06/24 02:56:10;;;;;;;8.40;3.88;;;;;;;18.13;59.70;99624.66;5001618;28;20037;-64
2022/06/24 02:58:36;;;;;;;7.25;3.97;;;;;;;18.16;59.00;99612.25;5001802;28;20030;-64
2022/06/24 03:01:03;;;;;;;5.95;3.92;;;;;;;18.23;58.34;99610.97;5001575;28;20105;-65
2022/06/24 03:03:29;;;;;;;4.78;3.63;;;;;;;18.25;58.96;99613.50;5001104;28;20467;-65
2022/06/24 03:05:56;;;;;;;6.63;3.20;;;;;;;18.29;58.02;99613.25;5001074;28;20062;-65
2022/06/24 03:08:23;;;;;;;7.45;3.33;;;;;;;18.40;57.65;99612.69;5002860;28;20034;-63
2022/06/24 03:10:51;;;;;;;6.25;3.33;;;;;;;18.46;57.65;99617.56;5005261;28;20030;-61
2022/06/24 03:13:18;;;;;;;6.82;3.53;;;;;;;18.51;57.24;99616.47;5005766;28;20038;-61
2022/06/24 03:15:45;;;;;;;4.20;3.10;;;;;;;18.58;56.82;99609.97;5005169;28;20084;-64
2022/06/24 03:18:14;;;;;;;5.53;3.03;;;;;;;18.60;56.80;99603.69;5005657;28;20030;-63
2022/06/24 03:20:40;;;;;;;7.78;3.60;;;;;;;18.76;56.95;99619.41;5004621;28;20037;-63
2022/06/24 03:23:05;;;;;;;7.15;3.60;;;;;;;18.91;56.65;99619.50;5005803;28;20357;-62
2022/06/24 03:25:31;;;;;;;4.47;3.47;;;;;;;19.00;56.91;99620.75;5005466;28;20053;-63
2022/06/24 03:27:57;;;;;;;5.47;3.10;;;;;;;19.01;57.00;99623.31;5004834;28;20081;-62
2022/06/24 03:30:22;;;;;;;7.15;2.80;;;;;;;18.94;56.80;99620.19;5005588;28;20021;-64
2022/06/24 03:32:48;;;;;;;6.15;3.00;;;;;;;19.08;56.23;99631.66;5005647;28;20110;-63
2022/06/24 03:35:14;;;;;;;7.20;3.10;;;;;;;19.17;56.62;99623.28;5004879;28;20387;-62
2022/06/24 03:37:39;;;;;;;10.38;3.67;;;;;;;19.20;56.11;99632.75;5004811;28;20034;-62
2022/06/24 03:40:06;;;;;;;5.95;3.63;;;;;;;19.29;55.89;99633.03;5004630;28;20034;-62
2022/06/24 03:42:31;;;;;;;6.80;3.00;;;;;;;19.38;55.60;99633.44;5004513;28;20027;-62
2022/06/24 03:44:57;;;;;;;9.35;3.65;;;;;;;19.42;54.69;99633.16;5004254;28;20042;-62
2022/06/24 03:47:22;;;;;;;5.32;3.05;;;;;;;19.51;55.39;99637.06;5004821;28;20076;-63
2022/06/24 03:49:50;;;;;;;8.10;3.03;;;;;;;19.58;55.24;99638.38;5005612;28;20083;-63
2022/06/24 03:52:17;;;;;;;8.30;3.65;;;;;;;19.61;55.16;99630.31;5003854;28;20121;-63
2022/06/24 03:54:43;;;;;;;4.35;3.35;;;;;;;19.75;54.61;99640.00;5003520;28;20453;-63
2022/06/24 03:57:08;;;;;;;10.32;3.45;;;;;;;19.85;53.89;99636.81;5002535;28;20029;-63
2022/06/24 03:59:34;;;;;;;3.85;2.42;;;;;;;19.96;53.81;99634.38;5003977;28;20094;-62
2022/06/24 04:01:59;;;;;;;5.53;3.58;;;;;;;20.03;54.18;99633.06;5002084;28;20028;-63
2022/06/24 04:04:25;;;;;;;5.43;3.00;;;;;;;20.10;54.00;99639.63;5004161;28;20460;-62
2022/06/24 04:06:50;;;;;;;4.95;4.07;;;;;;;20.10;53.64;99650.16;5003220;28;20121;-62
2022/06/24 04:09:16;;;;;;;5.43;2.90;;;;;;;20.12;53.32;99639.53;5004630;28;20038;-62
2022/06/24 04:11:42;;;;;;;4.80;2.55;;;;;;;20.25;53.24;99636.97;5004324;28;20026;-62
2022/06/24 04:14:08;;;;;;;5.47;2.50;;;;;;;20.28;53.67;99639.41;5004415;28;20027;-62
2022/06/24 04:16:33;;;;;;;3.38;2.50;;;;;;;20.33;53.86;99640.00;5004514;28;20076;-62
2022/06/24 04:18:59;;;;;;;4.82;2.55;;;;;;;20.33;53.64;99629.47;5001402;28;20107;-62
2022/06/24 04:21:24;;;;;;;4.85;2.60;;;;;;;20.41;53.40;99632.47;5003163;28;20030;-62
2022/06/24 04:23:50;;;;;;;4.78;2.22;;;;;;;20.50;51.26;99642.38;5003469;28;20483;-62
2022/06/24 04:26:17;;;;;;;3.38;2.53;;;;;;;20.62;51.77;99646.03;5004275;28;20030;-64
2022/06/24 04:28:43;;;;;;;2.90;2.22;;;;;;;20.66;51.51;99644.91;5004199;28;20472;-64
2022/06/24 04:31:09;;;;;;;3.72;2.25;;;;;;;20.68;50.64;99631.69;5003644;28;20037;-63
2022/06/24 04:33:34;;;;;;;4.63;2.20;;;;;;;20.75;51.42;99632.97;5004116;28;20037;-63
2022/06/24 04:36:00;;;;;;;5.38;2.80;;;;;;;20.85;51.29;99641.13;5003760;28;20058;-62
2022/06/24 04:38:26;;;;;;;7.07;2.30;;;;;;;20.84;51.62;99632.38;5004532;28;20034;-62
2022/06/24 04:40:51;;;;;;;5.03;2.45;;;;;;;20.99;51.05;99643.69;5003210;28;20418;-62
2022/06/24 04:43:17;;;;;;;3.40;2.53;;;;;;;21.06;50.42;99649.38;5003929;28;20033;-63
2022/06/24 04:45:46;;;;;;;3.10;2.30;;;;;;;21.15;49.57;99642.66;5004339;28;20475;-63
2022/06/24 04:48:13;;;;;;;5.22;2.33;;;;;;;21.25;49.37;99640.25;5001731;28;20476;-63
2022/06/24 04:50:39;;;;;;;3.28;2.00;;;;;;;21.31;49.56;99640.72;5003683;28;20026;-63
2022/06/24 04:53:04;;;;;;;5.13;2.00;;;;;;;21.42;49.68;99640.00;5002366;28;20033;-63
2022/06/24 04:55:30;;;;;;;4.90;2.20;;;;;;;21.30;49.84;99614.47;5002987;28;20030;-63
2022/06/24 04:57:56;;;;;;;4.85;2.17;;;;;;;21.57;48.43;99642.56;5003533;28;20113;-63
2022/06/24 05:00:21;;;;;;;8.07;2.50;;;;;;;21.64;48.33;99634.13;5003450;28;20085;-64
2022/06/24 05:02:48;;;;;;;3.70;2.15;;;;;;;21.79;48.53;99636.66;5002330;28;20029;-63
2022/06/24 05:05:14;;;;;;;3.72;2.28;;;;;;;21.91;48.05;99634.97;5003497;28;20046;-63
2022/06/24 05:07:40;;;;;;;2.33;2.00;;;;;;;22.04;48.09;99630.53;5003532;28;20042;-64
2022/06/24 05:10:06;;;;;;;6.72;2.10;;;;;;;22.13;48.19;99627.22;5003754;28;20041;-65
2022/06/24 05:12:32;;;;;;;7.63;2.22;;;;;;;22.25;48.22;99625.53;5003684;28;20049;-65
2022/06/24 05:14:58;;;;;;;5.20;1.90;;;;;;;22.31;46.44;99622.44;5002861;28;20645;-65
2022/06/24 05:17:24;;;;;;;3.78;2.22;;;;;;;22.54;46.74;99636.66;5003613;28;20109;-65
2022/06/24 05:19:53;;;;;;;2.42;1.98;;;;;;;22.63;44.55;99636.94;5003366;28;20117;-63
2022/06/24 05:22:19;;;;;;;2.75;1.73;;;;;;;22.72;45.14;99636.28;5003242;28;20032;-64
2022/06/24 05:24:45;;;;;;;2.63;2.20;;;;;;;22.92;44.12;99643.59;5003308;28;20054;-64
2022/06/24 05:27:11;;;;;;;3.10;1.60;;;;;;;23.02;42.91;99645.56;5003194;28;20125;-64
2022/06/24 05:29:37;;;;;;;2.90;1.92;;;;;;;23.12;42.47;99645.75;5003229;28;20026;-63
2022/06/24 05:32:03;;;;;;;8.65;2.42;;;;;;;23.16;42.37;99641.91;5003736;28;20089;-64
2022/06/24 05:34:28;;;;;;;2.85;1.90;;;;;;;23.32;43.07;99645.09;5002484;28;20031;-65
2022/06/24 05:36:54;;;;;;;3.03;2.08;;;;;;;23.36;42.13;99640.38;5002833;28;20029;-64
2022/06/24 05:39:20;;;;;;;4.63;1.80;;;;;;;23.43;41.52;99639.00;5001238;28;20038;-64
2022/06/24 05:41:46;;;;;;;2.10;1.60;;;;;;;23.38;40.34;99639.31;5002791;28;20033;-64
2022/06/24 05:44:11;;;;;;;2.80;1.42;;;;;;;23.37;39.54;99635.03;5003712;28;20041;-65
2022/06/24 05:46:38;;;;;;;2.35;1.80;;;;;;;23.50;39.94;99637.56;5003451;28;20026;-65
2022/06/24 05:49:04;;;;;;;1.98;1.60;;;;;;;23.58;41.59;99635.16;5002567;28;20113;-67
2022/06/24 05:51:30;;;;;;;3.85;2.28;;;;;;;23.53;41.15;99637.34;5002915;28;20113;-65
2022/06/24 05:56:39;;;;;;;9.90;2.60;;;;;;;23.73;40.97;99640.25;5002817;28;20160;-64
2022/06/24 05:59:05;;;;;;;5.18;2.80;;;;;;;23.75;40.93;99646.25;5002978;28;20400;-63
2022/06/24 06:01:31;;;;;;;4.10;1.77;;;;;;;23.73;40.83;99633.16;5002576;28;20041;-64
2022/06/24 06:03:56;;;;;;;3.20;1.80;;;;;;;23.70;40.99;99637.81;5001198;28;20022;-64
2022/06/24 06:06:23;;;;;;;6.43;2.20;;;;;;;23.82;40.86;99641.34;5003004;28;20469;-64
2022/06/24 06:08:49;;;;;;;5.70;1.83;;;;;;;23.83;41.31;99635.94;5002477;28;20380;-65
2022/06/24 06:11:18;;;;;;;5.93;2.38;;;;;;;23.61;40.23;99597.06;5001683;28;20048;-64
2022/06/24 06:13:45;;;;;;;6.82;1.77;;;;;;;24.01;40.23;99641.59;5002199;28;20103;-62
2022/06/24 06:16:11;;;;;;;2.42;1.50;;;;;;;24.06;39.85;99630.69;5000763;28;20029;-63
2022/06/24 06:18:37;;;;;;;4.20;1.83;;;;;;;24.07;39.57;99629.69;5002096;28;20030;-63
2022/06/24 06:21:05;;;;;;;2.53;1.58;;;;;;;24.01;40.23;99638.94;5002537;28;20481;-64
2022/06/24 06:23:31;;;;;;;1.83;1.40;;;;;;;23.99;39.88;99621.53;5002051;28;20512;-64
2022/06/24 06:25:58;;;;;;;2.00;1.60;;;;;;;24.09;39.35;99625.13;5001525;28;20145;-64
2022/06/24 06:28:24;;;;;;;1.60;1.48;;;;;;;24.05;39.55;99621.03;5002371;28;20030;-62
2022/06/24 06:30:49;;;;;;;3.08;1.63;;;;;;;24.24;40.31;99623.06;5003262;28;20032;-63
2022/06/24 06:33:15;;;;;;;2.88;1.92;;;;;;;24.25;40.72;99630.88;5002346;28;20037;-63
2022/06/24 06:35:41;;;;;;;2.22;1.75;;;;;;;24.24;40.18;99623.91;5002636;28;20486;-62
2022/06/24 06:38:07;;;;;;;3.92;1.90;;;;;;;24.19;39.83;99620.78;5001408;28;20041;-63
2022/06/24 06:40:37;;;;;;;1.95;1.50;;;;;;;24.33;39.66;99626.78;5002389;28;20038;-63
2022/06/24 06:43:05;;;;;;;2.38;1.23;;;;;;;24.38;40.02;99627.25;5001276;28;20461;-65
2022/06/24 06:45:31;;;;;;;2.42;1.70;;;;;;;24.38;39.11;99632.56;5001140;28;20042;-65
2022/06/24 06:47:56;;;;;;;3.50;1.75;;;;;;;24.42;38.92;99624.22;5001220;28;20077;-65
2022/06/24 06:50:22;;;;;;;2.88;1.73;;;;;;;24.28;38.95;99628.00;5002053;28;20487;-65
2022/06/24 06:52:48;;;;;;;3.13;1.80;;;;;;;24.34;39.05;99618.72;5001943;28;20395;-64
2022/06/24 06:55:14;;;;;;;3.03;1.70;;;;;;;24.40;39.01;99630.63;5000733;28;20032;-62
2022/06/24 06:57:39;;;;;;;3.47;1.98;;;;;;;24.37;40.59;99617.63;5001283;28;20112;-63
2022/06/24 07:00:06;;;;;;;5.90;3.88;;;;;;;24.41;40.63;99619.94;5002377;28;20499;-64
2022/06/24 07:02:32;;;;;;;2.78;1.70;;;;;;;24.57;40.56;99623.97;5002122;28;20018;-66
2022/06/24 07:04:58;;;;;;;2.70;2.28;;;;;;;24.58;38.54;99621.19;5001737;28;20365;-62
2022/06/24 07:07:23;;;;;;;5.53;2.53;;;;;;;24.85;40.28;99619.94;5001675;28;20451;-61
2022/06/24 07:09:51;;;;;;;2.83;1.80;;;;;;;24.86;39.68;99618.97;5001566;28;20034;-61
2022/06/24 07:12:16;;;;;;;2.67;1.90;;;;;;;24.97;39.43;99620.75;5000446;28;20125;-62
2022/06/24 07:14:43;;;;;;;4.45;2.10;;;;;;;25.01;41.60;99621.31;5001544;28;20022;-61
2022/06/24 07:17:09;;;;;;;1.95;1.70;;;;;;;24.95;40.89;99620.84;5001373;28;20467;-61
2022/06/24 07:19:36;;;;;;;3.47;2.03;;;;;;;25.19;40.35;99619.78;5001855;28;20038;-62
2022/06/24 07:22:02;;;;;;;3.47;2.22;;;;;;;25.27;39.69;99617.34;5000960;28;20034;-61
2022/06/24 07:24:28;;;;;;;4.35;2.00;;;;;;;25.03;40.94;99624.69;5002159;28;20033;-64
2022/06/24 07:26:54;;;;;;;1.88;1.70;;;;;;;25.11;41.17;99622.22;5001433;28;20026;-62
2022/06/24 07:29:19;;;;;;;2.92;2.00;;;;;;;25.11;39.79;99614.28;5001693;28;20037;-62
2022/06/24 07:31:47;;;;;;;3.47;2.00;;;;;;;25.30;40.06;99622.38;5001374;28;20030;-63
2022/06/24 07:34:16;;;;;;;2.95;1.85;;;;;;;25.47;39.38;99626.28;5000936;28;20372;-62
2022/06/24 07:36:41;;;;;;;1.70;1.60;;;;;;;25.30;40.30;99619.72;5001319;28;20030;-62
2022/06/24 07:39:08;;;;;;;4.80;2.13;;;;;;;25.04;39.98;99624.56;5001297;28;20038;-62
2022/06/24 07:41:34;;;;;;;3.80;2.13;;;;;;;25.12;40.29;99621.25;4999535;28;20030;-62
2022/06/24 07:43:59;;;;;;;2.60;1.80;;;;;;;25.20;38.89;99616.16;5001772;28;20161;-64
2022/06/24 07:46:26;;;;;;;2.55;2.33;;;;;;;24.98;39.80;99587.97;5001322;28;20037;-63
2022/06/24 07:48:52;;;;;;;4.97;2.13;;;;;;;25.13;39.75;99615.00;5000063;28;20471;-60
2022/06/24 07:51:19;;;;;;;6.55;3.53;;;;;;;25.21;40.38;99609.91;5000643;28;20145;-62
2022/06/24 07:53:46;;;;;;;4.95;2.60;;;;;;;25.23;40.00;99610.59;5002045;28;20037;-64
2022/06/24 07:58:57;;;;;;;3.25;2.28;;;;;;;25.07;40.93;99612.84;5004014;28;20037;-61
2022/06/24 08:01:22;;;;;;;4.15;2.00;;;;;;;25.13;41.32;99609.69;5003887;28;20037;-62
2022/06/24 08:03:48;;;;;;;2.60;2.00;;;;;;;25.02;41.44;99602.63;5002781;28;20029;-62
2022/06/24 08:06:14;;;;;;;5.95;2.20;;;;;;;25.10;39.98;99602.00;5004735;28;20042;-62
2022/06/24 08:08:39;;;;;;;3.15;1.95;;;;;;;25.05;40.10;99609.50;5002292;28;20101;-62
2022/06/24 08:11:05;;;;;;;2.88;1.98;;;;;;;25.18;40.90;99602.19;5004150;28;20037;-62
2022/06/24 08:13:32;;;;;;;4.30;1.80;;;;;;;25.30;40.22;99598.50;5006314;28;20044;-63
2022/06/24 08:15:58;;;;;;;3.95;1.92;;;;;;;25.21;39.30;99588.69;5014728;28;20042;-63
2022/06/24 08:18:24;;;;;;;3.05;2.20;;;;;;;25.48;39.18;99608.53;5014948;28;20109;-63
2022/06/24 08:20:50;;;;;;;5.28;2.13;;;;;;;25.55;40.98;99606.22;5014809;28;20080;-63
2022/06/24 08:23:16;;;;;;;4.43;2.20;;;;;;;25.63;41.12;99606.41;5014588;28;20030;-62
2022/06/24 08:25:41;;;;;;;5.22;1.80;;;;;;;25.45;38.95;99590.25;5014489;28;20034;-63
2022/06/24 08:28:07;;;;;;;4.43;2.28;;;;;;;25.71;41.02;99597.78;5010574;28;20053;-62
2022/06/24 08:30:34;;;;;;;3.60;2.50;;;;;;;25.87;40.12;99603.44;5014236;28;20037;-62
2022/06/24 08:33:00;;;;;;;6.45;2.60;;;;;;;25.85;37.80;99597.41;5014489;28;20040;-62
2022/06/24 08:35:26;;;;;;;5.63;2.25;;;;;;;25.93;38.80;99599.41;5012442;28;20411;-62
2022/06/24 08:37:52;;;;;;;2.97;2.20;;;;;;;26.01;38.74;99597.81;5014329;28;20030;-62
2022/06/24 08:40:20;;;;;;;3.97;2.33;;;;;;;25.74;38.75;99573.63;5014319;28;20552;-63
2022/06/24 08:42:51;;;;;;;2.30;1.88;;;;;;;25.64;38.34;99594.84;5013993;28;20030;-63
2022/06/24 08:45:17;;;;;;;4.82;2.13;;;;;;;25.94;38.98;99601.13;5006805;28;20022;-63
2022/06/24 08:47:45;;;;;;;4.80;2.00;;;;;;;25.96;39.18;99572.59;5014023;28;20062;-62
2022/06/24 08:50:12;;;;;;;2.88;1.90;;;;;;;26.14;38.97;99584.28;5014181;28;20018;-62
2022/06/24 08:52:45;;;;;;;4.75;2.30;;;;;;;25.48;37.58;99548.41;5014119;28;20046;-61
2022/06/24 08:55:18;;;;;;;3.20;2.63;;;;;;;25.79;37.83;99555.50;5013802;28;20480;-61
2022/06/24 08:57:44;;;;;;;4.88;2.72;;;;;;;26.23;39.01;99576.50;5014123;28;20026;-63
2022/06/24 09:00:11;;;;;;;2.30;2.10;;;;;;;26.07;37.71;99577.00;5014041;28;20030;-62
2022/06/24 09:02:36;;;;;;;3.00;2.10;;;;;;;26.15;37.55;99582.47;5014093;28;20044;-62
2022/06/24 09:05:12;;;;;;;2.85;2.20;;;;;;;26.13;36.52;99585.25;5013394;28;20050;-62
2022/06/24 09:07:38;;;;;;;3.60;1.90;;;;;;;26.10;37.32;99582.06;5014015;28;20038;-61
2022/06/24 09:10:09;;;;;;;2.35;2.10;;;;;;;25.77;37.30;99584.00;5012381;28;20038;-61
2022/06/24 09:12:46;;;;;;;7.45;2.50;;;;;;;25.58;38.13;99576.78;5013860;28;20034;-61
2022/06/24 09:15:14;;;;;;;2.47;2.17;;;;;;;25.78;38.24;99543.22;5013743;28;20152;-63
2022/06/24 09:17:40;;;;;;;3.25;2.25;;;;;;;26.15;38.87;99569.19;5013762;28;20080;-62
2022/06/24 09:20:11;;;;;;;3.40;2.10;;;;;;;26.38;38.86;99568.97;5014003;28;20032;-63
2022/06/24 09:22:37;;;;;;;;;;;;;;;26.49;37.53;99574.13;5029357;28;20029;-62
2022/06/24 09:25:04;;;;;;;4.40;2.88;;;;;;;26.57;39.26;99568.97;5011711;28;19921;-64
2022/06/24 09:27:30;;;;;;;2.22;1.90;;;;;;;26.14;37.65;99578.16;5012513;28;20799;-62
2022/06/24 09:29:55;;;;;;;2.50;2.30;;;;;;;26.43;38.57;99578.19;5013390;28;20057;-62
2022/06/24 09:32:21;;;;;;;3.42;1.90;;;;;;;26.42;38.00;99560.56;5013176;28;20025;-61
2022/06/24 09:35:06;;;;;;;3.72;2.45;;;;;;;26.51;38.01;99559.75;5013571;28;20030;-62
2022/06/24 09:37:36;;;;;;;2.28;1.80;;;;;;;26.37;37.75;99569.97;5013216;28;20022;-62
2022/06/24 09:40:18;;;;;;;5.85;2.40;;;;;;;26.45;37.73;99578.03;5012994;28;20452;-62
2022/06/24 09:43:09;;;;;;;3.60;2.35;;;;;;;26.37;37.20;99570.78;5011449;28;20018;-62
2022/06/24 09:45:49;;;;;;;2.47;1.95;;;;;;;26.26;37.18;99553.16;4999435;28;20506;-61
2022/06/24 09:48:35;;;;;;;4.07;2.40;;;;;;;26.18;36.39;99566.25;5011407;28;20041;-61
2022/06/24 09:51:05;;;;;;;3.45;2.03;;;;;;;25.98;36.63;99579.47;5013358;28;20022;-63
2022/06/24 09:53:36;;;;;;;3.08;2.03;;;;;;;25.98;37.32;99568.84;5007912;28;20032;-62
2022/06/24 09:56:03;;;;;;;3.30;2.53;;;;;;;26.17;37.35;99540.72;5009477;28;20026;-63
2022/06/24 09:58:29;;;;;;;3.65;2.25;;;;;;;26.34;37.44;99545.34;5010354;28;20380;-63
2022/06/24 10:00:55;;;;;;;3.40;2.13;;;;;;;26.36;39.02;99547.84;5011650;28;20025;-62
2022/06/24 10:03:21;;;;;;;3.65;2.53;;;;;;;26.48;38.86;99540.59;5012400;28;20108;-67
2022/06/24 10:05:49;;;;;;;3.65;2.42;;;;;;;26.11;37.85;99551.84;5011764;28;20815;-67
2022/06/24 10:08:21;;;;;;;3.60;2.10;;;;;;;26.11;38.82;99512.88;5012870;28;20034;-67
2022/06/24 10:10:53;;;;;;;4.95;2.78;;;;;;;26.52;39.34;99553.47;5012895;28;20073;-69
2022/06/24 10:13:28;;;;;;;3.25;2.30;;;;;;;25.94;38.22;99501.09;5012074;28;20100;-68
2022/06/24 10:15:56;;;;;;;4.35;2.58;;;;;;;25.83;37.12;99502.03;5011652;28;20030;-69
2022/06/24 10:18:27;;;;;;;3.30;2.33;;;;;;;25.69;37.49;99494.44;5009624;28;20064;-69
2022/06/24 10:20:59;;;;;;;3.78;2.25;;;;;;;25.90;36.80;99494.38;5012776;28;20109;-68
2022/06/24 10:23:46;;;;;;;3.45;2.70;;;;;;;26.19;38.24;99530.78;5012509;28;20510;-68
2022/06/24 10:26:24;;;;;;;3.97;2.30;;;;;;;26.15;37.38;99540.00;5012343;28;20517;-68
2022/06/24 10:28:59;;;;;;;3.67;2.10;;;;;;;26.23;37.26;99536.66;5012671;28;20032;-68
2022/06/24 10:34:25;;;;;;;2.22;1.95;;;;;;;26.00;35.30;99535.06;5012344;28;20500;-68
2022/06/24 10:37:00;;;;;;;3.70;2.53;;;;;;;25.96;37.50;99488.50;5012437;28;20112;-68
2022/06/24 10:39:28;;;;;;;3.60;2.40;;;;;;;26.18;37.63;99534.41;5010720;28;20394;-68
2022/06/24 10:41:59;;;;;;;3.00;2.33;;;;;;;25.99;37.60;99463.50;5012497;28;20029;-68
2022/06/24 10:44:25;;;;;;;;;;;;;;;26.35;35.34;99531.09;5009870;28;20117;-67
2022/06/24 10:47:10;;;;;;;6.78;2.20;;;;;;;26.20;35.73;99532.47;5007702;28;20059;-67
2022/06/24 10:49:50;;;;;;;2.33;2.08;;;;;;;26.33;36.06;99530.38;5012540;28;20472;-67
2022/06/24 10:52:39;;;;;;;2.67;1.83;;;;;;;26.32;36.47;99526.06;5012046;28;20026;-67
2022/06/24 10:57:50;;;;;;;3.05;2.10;;;;;;;26.54;36.95;99526.75;5012380;28;20103;-68
2022/06/24 11:00:24;;;;;;;6.63;2.60;;;;;;;26.32;36.08;99526.06;5012063;28;20379;-68
2022/06/24 11:03:05;;;;;;;5.20;2.30;;;;;;;26.17;36.92;99484.97;5012001;28;20018;-67
2022/06/24 11:05:35;;;;;;;2.40;2.20;;;;;;;26.38;35.92;99523.81;5011965;28;20049;-67
2022/06/24 11:08:03;;;;;;;3.90;2.10;;;;;;;26.38;36.34;99519.34;5011041;28;20380;-68
2022/06/24 11:10:30;;;;;;;3.65;2.53;;;;;;;26.23;37.96;99483.56;5011862;28;20038;-67
2022/06/24 11:12:58;;;;;;;3.25;2.08;;;;;;;26.01;35.58;99536.75;5011151;28;20085;-68
2022/06/24 11:15:33;;;;;;;5.43;2.28;;;;;;;26.22;36.18;99519.03;5011725;28;20472;-67
2022/06/24 11:18:05;;;;;;;2.17;1.98;;;;;;;26.30;36.17;99522.69;5011736;28;20482;-66
2022/06/24 11:20:31;;;;;;;2.47;2.28;;;;;;;26.22;35.55;99522.53;5011772;28;20034;-66
2022/06/24 11:22:56;;;;;;;2.38;2.03;;;;;;;26.21;35.57;99517.34;5011877;28;20092;-68
2022/06/24 11:25:24;;;;;;;5.45;2.30;;;;;;;26.05;36.05;99464.81;5010608;28;20842;-67
2022/06/24 11:27:49;;;;;;;3.97;2.17;;;;;;;26.32;36.51;99503.97;5011810;28;20026;-67
2022/06/24 11:30:15;;;;;;;5.05;2.33;;;;;;;26.38;36.48;99510.53;5017297;28;20033;-68
2022/06/24 11:33:07;;;;;;;3.10;2.20;;;;;;;26.29;35.75;99520.16;5016629;28;20026;-69
2022/06/24 11:35:33;;;;;;;3.60;2.33;;;;;;;26.38;35.90;99516.69;5013153;28;20037;-68
2022/06/24 11:38:04;;;;;;;2.65;1.90;;;;;;;26.46;35.64;99516.00;5015829;28;20030;-69
2022/06/24 11:40:33;;;;;;;2.50;2.05;;;;;;;26.47;36.19;99510.53;5015692;28;20442;-68
2022/06/24 11:43:18;;;;;;;2.60;2.20;;;;;;;26.65;36.76;99504.50;5014352;28;20038;-68
2022/06/24 11:45:48;;;;;;;3.15;2.17;;;;;;;26.59;36.43;99500.59;5008180;28;20044;-68
2022/06/24 11:48:22;;;;;;;6.10;2.25;;;;;;;26.58;36.12;99487.47;5015303;28;20085;-68